sensor_id;sensor_type;location;lat;lon;timestamp;temperature;humidity
45549;DHT22;31270;48.328;10.096;2022-08-14T00:02:00;16.00;99.90
45549;DHT22;31270;48.328;10.096;2022-08-14T00:04:26;16.00;99.90
45549;DHT22;31270;48.328;10.096;2022-08-14T00:06:52;16.00;99.90
45549;DHT22;31270;48.328;10.096;2022-08-14T00:09:18;16.00;99.90
45549;DHT22;31270;48.328;10.096;2022-08-14T00:11:43;15.90;99.90
45549;DHT22;31270;48.328;10.096;2022-08-14T00:14:09;15.90;99.90
45549;DHT22;31270;48.328;10.096;2022-08-14T00:16:34;15.80;99.90
45549;DHT22;31270;48.328;10.096;2022-08-14T00:19:00;15.80;99.90
45549;DHT22;31270;48.328;10.096;2022-08-14T00:21:26;15.70;99.90
45549;DHT22;31270;48.328;10.096;2022-08-14T00:23:52;15.70;99.90
45549;DHT22;31270;48.328;10.096;2022-08-14T00:26:18;15.70;99.90
45549;DHT22;31270;48.328;10.096;2022-08-14T00:28:44;15.60;99.90
45549;DHT22;31270;48.328;10.096;2022-08-14T00:31:09;15.60;99.90
45549;DHT22;31270;48.328;10.096;2022-08-14T00:33:35;15.60;99.90
45549;DHT22;31270;48.328;10.096;2022-08-14T00:36:01;15.60;99.90
45549;DHT22;31270;48.328;10.096;2022-08-14T00:38:26;15.50;99.90
45549;DHT22;31270;48.328;10.096;2022-08-14T00:40:52;15.50;99.90
45549;DHT22;31270;48.328;10.096;2022-08-14T00:43:18;15.50;99.90
45549;DHT22;31270;48.328;10.096;2022-08-14T00:45:43;15.40;99.90
45549;DHT22;31270;48.328;10.096;2022-08-14T00:48:10;15.30;99.90
45549;DHT22;31270;48.328;10.096;2022-08-14T00:50:36;15.20;99.90
45549;DHT22;31270;48.328;10.096;2022-08-14T00:53:02;15.20;99.90
45549;DHT22;31270;48.328;10.096;2022-08-14T00:55:29;15.20;99.90
45549;DHT22;31270;48.328;10.096;2022-08-14T00:57:57;15.10;99.90
45549;DHT22;31270;48.328;10.096;2022-08-14T01:00:41;15.10;99.90
45549;DHT22;31270;48.328;10.096;2022-08-14T01:03:08;15.00;99.90
45549;DHT22;31270;48.328;10.096;2022-08-14T01:05:34;14.90;99.90
45549;DHT22;31270;48.328;10.096;2022-08-14T01:08:01;14.90;99.90
45549;DHT22;31270;48.328;10.096;2022-08-14T01:10:28;14.90;99.90
45549;DHT22;31270;48.328;10.096;2022-08-14T01:13:15;15.00;99.90
45549;DHT22;31270;48.328;10.096;2022-08-14T01:15:46;15.00;99.90
45549;DHT22;31270;48.328;10.096;2022-08-14T01:18:12;15.00;99.90
45549;DHT22;31270;48.328;10.096;2022-08-14T01:20:57;15.00;99.90
45549;DHT22;31270;48.328;10.096;2022-08-14T01:23:33;15.00;99.90
45549;DHT22;31270;48.328;10.096;2022-08-14T01:25:58;14.90;99.90
45549;DHT22;31270;48.328;10.096;2022-08-14T01:28:24;14.90;99.90
45549;DHT22;31270;48.328;10.096;2022-08-14T01:30:53;14.90;99.90
45549;DHT22;31270;48.328;10.096;2022-08-14T01:33:25;14.90;99.90
45549;DHT22;31270;48.328;10.096;2022-08-14T01:35:55;14.90;99.90
45549;DHT22;31270;48.328;10.096;2022-08-14T01:38:23;14.90;99.90
45549;DHT22;31270;48.328;10.096;2022-08-14T01:40:49;15.00;99.90
45549;DHT22;31270;48.328;10.096;2022-08-14T01:43:15;14.90;99.90
45549;DHT22;31270;48.328;10.096;2022-08-14T01:45:42;14.90;99.90
45549;DHT22;31270;48.328;10.096;2022-08-14T01:48:09;14.90;99.90
45549;DHT22;31270;48.328;10.096;2022-08-14T01:50:35;14.90;99.90
45549;DHT22;31270;48.328;10.096;2022-08-14T01:53:02;14.80;99.90
45549;DHT22;31270;48.328;10.096;2022-08-14T01:55:28;14.80;99.90
45549;DHT22;31270;48.328;10.096;2022-08-14T01:57:57;14.70;99.90
45549;DHT22;31270;48.328;10.096;2022-08-14T02:00:24;14.60;99.90
45549;DHT22;31270;48.328;10.096;2022-08-14T02:02:49;14.50;99.90
45549;DHT22;31270;48.328;10.096;2022-08-14T02:05:15;14.40;99.90
45549;DHT22;31270;48.328;10.096;2022-08-14T02:07:42;14.40;99.90
45549;DHT22;31270;48.328;10.096;2022-08-14T02:10:12;14.30;99.90
45549;DHT22;31270;48.328;10.096;2022-08-14T02:12:38;14.20;99.90
45549;DHT22;31270;48.328;10.096;2022-08-14T02:15:06;14.30;99.90
45549;DHT22;31270;48.328;10.096;2022-08-14T02:17:35;14.10;99.90
45549;DHT22;31270;48.328;10.096;2022-08-14T02:20:02;14.10;99.90
45549;DHT22;31270;48.328;10.096;2022-08-14T02:22:28;14.10;99.90
45549;DHT22;31270;48.328;10.096;2022-08-14T02:24:54;14.00;99.90
45549;DHT22;31270;48.328;10.096;2022-08-14T02:27:19;14.00;99.90
45549;DHT22;31270;48.328;10.096;2022-08-14T02:29:46;14.00;99.90
45549;DHT22;31270;48.328;10.096;2022-08-14T02:32:12;14.00;99.90
45549;DHT22;31270;48.328;10.096;2022-08-14T02:34:37;14.00;99.90
45549;DHT22;31270;48.328;10.096;2022-08-14T02:37:08;14.00;99.90
45549;DHT22;31270;48.328;10.096;2022-08-14T02:39:40;14.00;99.90
45549;DHT22;31270;48.328;10.096;2022-08-14T02:42:08;13.90;99.90
45549;DHT22;31270;48.328;10.096;2022-08-14T02:44:34;13.80;99.90
45549;DHT22;31270;48.328;10.096;2022-08-14T02:47:00;13.80;99.90
45549;DHT22;31270;48.328;10.096;2022-08-14T02:49:27;13.80;99.90
45549;DHT22;31270;48.328;10.096;2022-08-14T02:51:54;13.70;99.90
45549;DHT22;31270;48.328;10.096;2022-08-14T02:54:21;13.70;99.90
45549;DHT22;31270;48.328;10.096;2022-08-14T02:56:51;13.70;99.90
45549;DHT22;31270;48.328;10.096;2022-08-14T02:59:19;13.60;99.90
45549;DHT22;31270;48.328;10.096;2022-08-14T03:01:46;13.50;99.90
45549;DHT22;31270;48.328;10.096;2022-08-14T03:04:13;13.60;99.90
45549;DHT22;31270;48.328;10.096;2022-08-14T03:06:39;13.60;99.90
45549;DHT22;31270;48.328;10.096;2022-08-14T03:09:08;13.50;99.90
45549;DHT22;31270;48.328;10.096;2022-08-14T03:11:33;13.50;99.90
45549;DHT22;31270;48.328;10.096;2022-08-14T03:13:59;13.50;99.90
45549;DHT22;31270;48.328;10.096;2022-08-14T03:16:26;13.50;99.90
45549;DHT22;31270;48.328;10.096;2022-08-14T03:18:53;13.40;99.90
45549;DHT22;31270;48.328;10.096;2022-08-14T03:21:22;13.30;99.90
45549;DHT22;31270;48.328;10.096;2022-08-14T03:23:50;13.40;99.90
45549;DHT22;31270;48.328;10.096;2022-08-14T03:26:19;13.40;99.90
45549;DHT22;31270;48.328;10.096;2022-08-14T03:28:50;13.30;99.90
45549;DHT22;31270;48.328;10.096;2022-08-14T03:31:17;13.30;99.90
45549;DHT22;31270;48.328;10.096;2022-08-14T03:33:47;13.30;99.90
45549;DHT22;31270;48.328;10.096;2022-08-14T03:36:14;13.30;99.90
45549;DHT22;31270;48.328;10.096;2022-08-14T03:38:44;13.30;99.90
45549;DHT22;31270;48.328;10.096;2022-08-14T03:41:30;13.20;99.90
45549;DHT22;31270;48.328;10.096;2022-08-14T03:43:58;13.20;99.90
45549;DHT22;31270;48.328;10.096;2022-08-14T03:46:30;13.20;99.90
45549;DHT22;31270;48.328;10.096;2022-08-14T03:48:56;13.10;99.90
45549;DHT22;31270;48.328;10.096;2022-08-14T03:51:22;13.10;99.90
45549;DHT22;31270;48.328;10.096;2022-08-14T03:53:53;13.00;99.90
45549;DHT22;31270;48.328;10.096;2022-08-14T03:56:19;12.90;99.90
45549;DHT22;31270;48.328;10.096;2022-08-14T03:58:50;12.90;99.90
45549;DHT22;31270;48.328;10.096;2022-08-14T04:01:17;12.80;99.90
45549;DHT22;31270;48.328;10.096;2022-08-14T04:03:44;12.80;99.90
45549;DHT22;31270;48.328;10.096;2022-08-14T04:06:10;12.80;99.90
45549;DHT22;31270;48.328;10.096;2022-08-14T04:08:37;12.70;99.90
45549;DHT22;31270;48.328;10.096;2022-08-14T04:11:04;12.70;99.90
45549;DHT22;31270;48.328;10.096;2022-08-14T04:13:31;12.70;99.90
45549;DHT22;31270;48.328;10.096;2022-08-14T04:15:57;12.60;99.90
45549;DHT22;31270;48.328;10.096;2022-08-14T04:18:24;12.60;99.90
45549;DHT22;31270;48.328;10.096;2022-08-14T04:20:50;12.70;99.90
45549;DHT22;31270;48.328;10.096;2022-08-14T04:23:16;12.60;99.90
45549;DHT22;31270;48.328;10.096;2022-08-14T04:25:42;12.60;99.90
45549;DHT22;31270;48.328;10.096;2022-08-14T04:28:10;12.60;99.90
45549;DHT22;31270;48.328;10.096;2022-08-14T04:30:36;12.50;99.90
45549;DHT22;31270;48.328;10.096;2022-08-14T04:33:06;12.50;99.90
45549;DHT22;31270;48.328;10.096;2022-08-14T04:35:35;12.50;99.90
45549;DHT22;31270;48.328;10.096;2022-08-14T04:38:07;12.50;99.90
45549;DHT22;31270;48.328;10.096;2022-08-14T04:40:52;12.50;99.90
45549;DHT22;31270;48.328;10.096;2022-08-14T04:43:37;12.50;99.90
45549;DHT22;31270;48.328;10.096;2022-08-14T04:46:10;12.50;99.90
45549;DHT22;31270;48.328;10.096;2022-08-14T04:48:36;12.60;99.90
45549;DHT22;31270;48.328;10.096;2022-08-14T04:51:05;12.60;99.90
45549;DHT22;31270;48.328;10.096;2022-08-14T04:53:32;12.60;99.90
45549;DHT22;31270;48.328;10.096;2022-08-14T04:55:58;12.70;99.90
45549;DHT22;31270;48.328;10.096;2022-08-14T04:58:27;12.70;99.90
45549;DHT22;31270;48.328;10.096;2022-08-14T05:00:54;12.80;99.90
45549;DHT22;31270;48.328;10.096;2022-08-14T05:03:22;12.80;99.90
45549;DHT22;31270;48.328;10.096;2022-08-14T05:05:50;12.90;99.90
45549;DHT22;31270;48.328;10.096;2022-08-14T05:08:17;13.00;99.90
45549;DHT22;31270;48.328;10.096;2022-08-14T05:10:45;13.10;99.90
45549;DHT22;31270;48.328;10.096;2022-08-14T05:13:11;13.20;99.90
45549;DHT22;31270;48.328;10.096;2022-08-14T05:15:39;13.30;99.90
45549;DHT22;31270;48.328;10.096;2022-08-14T05:18:14;13.40;99.90
45549;DHT22;31270;48.328;10.096;2022-08-14T05:20:45;13.50;99.90
45549;DHT22;31270;48.328;10.096;2022-08-14T05:23:14;13.60;99.90
45549;DHT22;31270;48.328;10.096;2022-08-14T05:25:41;13.70;99.90
45549;DHT22;31270;48.328;10.096;2022-08-14T05:28:14;13.80;99.90
45549;DHT22;31270;48.328;10.096;2022-08-14T05:30:45;14.00;99.90
45549;DHT22;31270;48.328;10.096;2022-08-14T05:33:12;14.20;99.90
45549;DHT22;31270;48.328;10.096;2022-08-14T05:35:39;14.30;99.90
45549;DHT22;31270;48.328;10.096;2022-08-14T05:38:09;14.50;99.90
45549;DHT22;31270;48.328;10.096;2022-08-14T05:40:35;14.60;99.90
45549;DHT22;31270;48.328;10.096;2022-08-14T05:43:01;14.80;99.90
45549;DHT22;31270;48.328;10.096;2022-08-14T05:45:27;15.00;99.90
45549;DHT22;31270;48.328;10.096;2022-08-14T05:47:53;15.10;99.90
45549;DHT22;31270;48.328;10.096;2022-08-14T05:50:22;15.30;99.90
45549;DHT22;31270;48.328;10.096;2022-08-14T05:52:49;15.40;99.90
45549;DHT22;31270;48.328;10.096;2022-08-14T05:55:15;15.60;99.90
45549;DHT22;31270;48.328;10.096;2022-08-14T05:57:49;15.70;99.90
45549;DHT22;31270;48.328;10.096;2022-08-14T06:00:16;15.80;99.90
45549;DHT22;31270;48.328;10.096;2022-08-14T06:02:42;16.00;99.90
45549;DHT22;31270;48.328;10.096;2022-08-14T06:05:08;16.20;99.90
45549;DHT22;31270;48.328;10.096;2022-08-14T06:07:37;16.30;99.90
45549;DHT22;31270;48.328;10.096;2022-08-14T06:10:05;16.50;99.90
45549;DHT22;31270;48.328;10.096;2022-08-14T06:12:32;16.60;99.90
45549;DHT22;31270;48.328;10.096;2022-08-14T06:14:58;16.60;99.90
45549;DHT22;31270;48.328;10.096;2022-08-14T06:17:24;16.80;99.90
45549;DHT22;31270;48.328;10.096;2022-08-14T06:19:50;16.80;99.90
45549;DHT22;31270;48.328;10.096;2022-08-14T06:22:16;17.00;99.90
45549;DHT22;31270;48.328;10.096;2022-08-14T06:24:41;17.00;99.90
45549;DHT22;31270;48.328;10.096;2022-08-14T06:27:07;17.10;99.90
45549;DHT22;31270;48.328;10.096;2022-08-14T06:29:33;17.20;99.90
45549;DHT22;31270;48.328;10.096;2022-08-14T06:31:59;17.30;99.90
45549;DHT22;31270;48.328;10.096;2022-08-14T06:34:25;17.50;99.90
45549;DHT22;31270;48.328;10.096;2022-08-14T06:36:50;17.50;99.90
45549;DHT22;31270;48.328;10.096;2022-08-14T06:39:16;17.60;99.90
45549;DHT22;31270;48.328;10.096;2022-08-14T06:41:41;17.90;99.90
45549;DHT22;31270;48.328;10.096;2022-08-14T06:44:08;18.00;99.90
45549;DHT22;31270;48.328;10.096;2022-08-14T06:46:34;18.10;99.90
45549;DHT22;31270;48.328;10.096;2022-08-14T06:48:59;18.30;99.90
45549;DHT22;31270;48.328;10.096;2022-08-14T06:51:25;18.50;99.90
45549;DHT22;31270;48.328;10.096;2022-08-14T06:53:51;18.80;99.90
45549;DHT22;31270;48.328;10.096;2022-08-14T06:56:16;19.10;99.90
45549;DHT22;31270;48.328;10.096;2022-08-14T06:58:42;19.30;99.90
45549;DHT22;31270;48.328;10.096;2022-08-14T07:01:07;19.40;99.90
45549;DHT22;31270;48.328;10.096;2022-08-14T07:03:52;19.40;99.90
45549;DHT22;31270;48.328;10.096;2022-08-14T07:06:36;19.50;99.90
45549;DHT22;31270;48.328;10.096;2022-08-14T07:09:02;19.60;99.90
45549;DHT22;31270;48.328;10.096;2022-08-14T07:11:29;19.70;99.90
45549;DHT22;31270;48.328;10.096;2022-08-14T07:13:55;19.90;99.90
45549;DHT22;31270;48.328;10.096;2022-08-14T07:16:21;20.20;99.90
45549;DHT22;31270;48.328;10.096;2022-08-14T07:18:46;20.50;99.90
45549;DHT22;31270;48.328;10.096;2022-08-14T07:21:12;20.70;99.90
45549;DHT22;31270;48.328;10.096;2022-08-14T07:23:38;20.80;99.90
45549;DHT22;31270;48.328;10.096;2022-08-14T07:26:04;21.00;99.90
45549;DHT22;31270;48.328;10.096;2022-08-14T07:28:32;21.20;99.90
45549;DHT22;31270;48.328;10.096;2022-08-14T07:31:00;21.30;99.90
45549;DHT22;31270;48.328;10.096;2022-08-14T07:33:28;21.50;99.90
45549;DHT22;31270;48.328;10.096;2022-08-14T07:35:56;21.50;99.90
45549;DHT22;31270;48.328;10.096;2022-08-14T07:38:22;21.50;99.90
45549;DHT22;31270;48.328;10.096;2022-08-14T07:40:49;21.50;99.90
45549;DHT22;31270;48.328;10.096;2022-08-14T07:43:16;21.60;99.90
45549;DHT22;31270;48.328;10.096;2022-08-14T07:45:42;21.70;99.90
45549;DHT22;31270;48.328;10.096;2022-08-14T07:48:08;21.90;99.90
45549;DHT22;31270;48.328;10.096;2022-08-14T07:50:34;22.00;99.90
45549;DHT22;31270;48.328;10.096;2022-08-14T07:53:00;22.30;99.90
45549;DHT22;31270;48.328;10.096;2022-08-14T07:55:26;22.60;99.90
45549;DHT22;31270;48.328;10.096;2022-08-14T07:57:52;22.70;99.90
45549;DHT22;31270;48.328;10.096;2022-08-14T08:00:23;22.80;99.90
45549;DHT22;31270;48.328;10.096;2022-08-14T08:02:51;23.00;99.90
45549;DHT22;31270;48.328;10.096;2022-08-14T08:05:19;23.10;99.90
45549;DHT22;31270;48.328;10.096;2022-08-14T08:07:46;23.10;99.90
45549;DHT22;31270;48.328;10.096;2022-08-14T08:10:21;23.10;99.90
45549;DHT22;31270;48.328;10.096;2022-08-14T08:15:28;23.40;99.90
45549;DHT22;31270;48.328;10.096;2022-08-14T08:17:54;23.70;99.90
45549;DHT22;31270;48.328;10.096;2022-08-14T08:20:22;24.00;99.90
45549;DHT22;31270;48.328;10.096;2022-08-14T08:22:51;24.30;99.90
45549;DHT22;31270;48.328;10.096;2022-08-14T08:25:17;24.60;99.90
45549;DHT22;31270;48.328;10.096;2022-08-14T08:28:15;24.80;99.90
45549;DHT22;31270;48.328;10.096;2022-08-14T08:30:41;25.10;99.90
45549;DHT22;31270;48.328;10.096;2022-08-14T08:33:08;24.90;99.90
45549;DHT22;31270;48.328;10.096;2022-08-14T08:35:36;25.10;99.70
45549;DHT22;31270;48.328;10.096;2022-08-14T08:38:08;25.30;98.70
45549;DHT22;31270;48.328;10.096;2022-08-14T08:40:42;25.30;98.80
45549;DHT22;31270;48.328;10.096;2022-08-14T08:45:42;25.70;98.10
45549;DHT22;31270;48.328;10.096;2022-08-14T08:48:08;25.90;97.50
45549;DHT22;31270;48.328;10.096;2022-08-14T08:50:35;26.10;97.20
45549;DHT22;31270;48.328;10.096;2022-08-14T08:53:04;26.30;97.50
45549;DHT22;31270;48.328;10.096;2022-08-14T08:55:34;26.60;96.00
45549;DHT22;31270;48.328;10.096;2022-08-14T08:58:04;26.80;96.40
45549;DHT22;31270;48.328;10.096;2022-08-14T09:00:31;27.00;95.80
45549;DHT22;31270;48.328;10.096;2022-08-14T09:03:28;27.20;95.20
45549;DHT22;31270;48.328;10.096;2022-08-14T09:06:02;27.40;95.00
45549;DHT22;31270;48.328;10.096;2022-08-14T09:08:34;27.70;93.40
45549;DHT22;31270;48.328;10.096;2022-08-14T09:11:06;27.70;93.00
45549;DHT22;31270;48.328;10.096;2022-08-14T09:13:34;27.70;92.40
45549;DHT22;31270;48.328;10.096;2022-08-14T09:16:00;27.70;92.50
45549;DHT22;31270;48.328;10.096;2022-08-14T09:18:27;27.60;91.60
45549;DHT22;31270;48.328;10.096;2022-08-14T09:20:55;27.40;92.10
45549;DHT22;31270;48.328;10.096;2022-08-14T09:23:21;27.50;91.40
45549;DHT22;31270;48.328;10.096;2022-08-14T09:25:49;27.50;91.10
45549;DHT22;31270;48.328;10.096;2022-08-14T09:28:17;27.70;92.20
45549;DHT22;31270;48.328;10.096;2022-08-14T09:30:51;28.20;91.80
45549;DHT22;31270;48.328;10.096;2022-08-14T09:36:17;28.90;91.30
45549;DHT22;31270;48.328;10.096;2022-08-14T09:39:00;29.10;90.20
45549;DHT22;31270;48.328;10.096;2022-08-14T09:46:38;29.40;87.70
45549;DHT22;31270;48.328;10.096;2022-08-14T09:49:05;29.50;86.00
45549;DHT22;31270;48.328;10.096;2022-08-14T09:51:35;29.60;86.90
45549;DHT22;31270;48.328;10.096;2022-08-14T09:54:06;30.10;88.10
45549;DHT22;31270;48.328;10.096;2022-08-14T09:56:45;30.40;84.60
45549;DHT22;31270;48.328;10.096;2022-08-14T09:59:13;30.00;82.40
45549;DHT22;31270;48.328;10.096;2022-08-14T10:01:39;30.10;83.10
45549;DHT22;31270;48.328;10.096;2022-08-14T10:04:23;29.60;82.30
45549;DHT22;31270;48.328;10.096;2022-08-14T10:06:51;29.70;82.50
45549;DHT22;31270;48.328;10.096;2022-08-14T10:09:17;29.80;81.70
45549;DHT22;31270;48.328;10.096;2022-08-14T10:11:57;29.80;79.10
45549;DHT22;31270;48.328;10.096;2022-08-14T10:14:24;29.80;77.70
45549;DHT22;31270;48.328;10.096;2022-08-14T10:16:56;30.00;77.50
45549;DHT22;31270;48.328;10.096;2022-08-14T10:19:24;29.90;76.80
45549;DHT22;31270;48.328;10.096;2022-08-14T10:22:02;30.00;78.50
45549;DHT22;31270;48.328;10.096;2022-08-14T10:24:47;30.30;75.70
45549;DHT22;31270;48.328;10.096;2022-08-14T10:27:16;30.50;75.80
45549;DHT22;31270;48.328;10.096;2022-08-14T10:29:47;30.60;76.50
45549;DHT22;31270;48.328;10.096;2022-08-14T10:32:14;30.70;77.10
45549;DHT22;31270;48.328;10.096;2022-08-14T10:34:40;31.00;76.00
45549;DHT22;31270;48.328;10.096;2022-08-14T10:37:11;31.20;73.70
45549;DHT22;31270;48.328;10.096;2022-08-14T10:39:39;31.40;72.80
45549;DHT22;31270;48.328;10.096;2022-08-14T10:42:08;31.60;73.50
45549;DHT22;31270;48.328;10.096;2022-08-14T10:44:37;31.80;73.80
45549;DHT22;31270;48.328;10.096;2022-08-14T10:47:08;31.90;71.90
45549;DHT22;31270;48.328;10.096;2022-08-14T10:49:42;32.20;74.20
45549;DHT22;31270;48.328;10.096;2022-08-14T10:52:22;32.40;70.00
45549;DHT22;31270;48.328;10.096;2022-08-14T10:54:49;32.10;68.50
45549;DHT22;31270;48.328;10.096;2022-08-14T10:57:19;31.90;68.20
45549;DHT22;31270;48.328;10.096;2022-08-14T11:02:36;31.00;65.90
45549;DHT22;31270;48.328;10.096;2022-08-14T11:07:58;31.50;66.80
45549;DHT22;31270;48.328;10.096;2022-08-14T11:10:45;32.20;69.80
45549;DHT22;31270;48.328;10.096;2022-08-14T11:13:19;32.50;68.60
45549;DHT22;31270;48.328;10.096;2022-08-14T11:15:51;32.70;67.30
45549;DHT22;31270;48.328;10.096;2022-08-14T11:18:17;32.60;67.80
45549;DHT22;31270;48.328;10.096;2022-08-14T11:20:52;32.80;63.80
45549;DHT22;31270;48.328;10.096;2022-08-14T11:23:24;33.00;63.90
45549;DHT22;31270;48.328;10.096;2022-08-14T11:25:52;33.20;61.00
45549;DHT22;31270;48.328;10.096;2022-08-14T11:28:22;33.30;60.00
45549;DHT22;31270;48.328;10.096;2022-08-14T11:30:49;33.50;62.10
45549;DHT22;31270;48.328;10.096;2022-08-14T11:33:15;33.20;58.70
45549;DHT22;31270;48.328;10.096;2022-08-14T11:35:41;33.20;62.90
45549;DHT22;31270;48.328;10.096;2022-08-14T11:38:07;33.10;58.10
45549;DHT22;31270;48.328;10.096;2022-08-14T11:40:38;33.20;58.80
45549;DHT22;31270;48.328;10.096;2022-08-14T11:43:06;33.10;58.40
45549;DHT22;31270;48.328;10.096;2022-08-14T11:45:37;33.00;60.40
45549;DHT22;31270;48.328;10.096;2022-08-14T11:48:16;33.00;60.40
45549;DHT22;31270;48.328;10.096;2022-08-14T11:50:43;33.30;57.60
45549;DHT22;31270;48.328;10.096;2022-08-14T11:53:25;33.40;58.80
45549;DHT22;31270;48.328;10.096;2022-08-14T11:55:56;33.70;58.00
45549;DHT22;31270;48.328;10.096;2022-08-14T11:58:28;33.40;57.20
45549;DHT22;31270;48.328;10.096;2022-08-14T12:01:00;33.70;59.70
45549;DHT22;31270;48.328;10.096;2022-08-14T12:03:42;34.00;59.80
45549;DHT22;31270;48.328;10.096;2022-08-14T12:06:11;33.70;57.20
45549;DHT22;31270;48.328;10.096;2022-08-14T12:08:37;33.40;58.00
45549;DHT22;31270;48.328;10.096;2022-08-14T12:11:05;33.40;59.70
45549;DHT22;31270;48.328;10.096;2022-08-14T12:13:32;33.60;59.70
45549;DHT22;31270;48.328;10.096;2022-08-14T12:16:01;33.90;57.30
45549;DHT22;31270;48.328;10.096;2022-08-14T12:18:31;34.40;58.00
45549;DHT22;31270;48.328;10.096;2022-08-14T12:21:10;34.70;57.00
45549;DHT22;31270;48.328;10.096;2022-08-14T12:23:36;35.00;57.40
45549;DHT22;31270;48.328;10.096;2022-08-14T12:26:08;35.00;56.70
45549;DHT22;31270;48.328;10.096;2022-08-14T12:28:35;35.30;54.70
45549;DHT22;31270;48.328;10.096;2022-08-14T12:31:13;35.00;54.60
45549;DHT22;31270;48.328;10.096;2022-08-14T12:33:41;34.80;57.20
45549;DHT22;31270;48.328;10.096;2022-08-14T12:36:10;35.00;55.30
45549;DHT22;31270;48.328;10.096;2022-08-14T12:38:45;35.00;54.20
45549;DHT22;31270;48.328;10.096;2022-08-14T12:41:18;34.70;52.50
45549;DHT22;31270;48.328;10.096;2022-08-14T12:43:48;34.70;55.80
45549;DHT22;31270;48.328;10.096;2022-08-14T12:46:26;34.60;53.90
45549;DHT22;31270;48.328;10.096;2022-08-14T12:48:53;34.40;53.10
45549;DHT22;31270;48.328;10.096;2022-08-14T12:51:20;34.00;52.60
45549;DHT22;31270;48.328;10.096;2022-08-14T12:53:47;34.00;56.60
45549;DHT22;31270;48.328;10.096;2022-08-14T12:56:17;34.10;53.20
45549;DHT22;31270;48.328;10.096;2022-08-14T12:58:51;34.20;56.00
45549;DHT22;31270;48.328;10.096;2022-08-14T13:01:23;34.60;56.40
45549;DHT22;31270;48.328;10.096;2022-08-14T13:03:50;34.80;54.00
45549;DHT22;31270;48.328;10.096;2022-08-14T13:06:17;35.00;54.40
45549;DHT22;31270;48.328;10.096;2022-08-14T13:08:43;34.90;52.20
45549;DHT22;31270;48.328;10.096;2022-08-14T13:11:13;35.00;54.60
45549;DHT22;31270;48.328;10.096;2022-08-14T13:13:42;35.40;53.80
45549;DHT22;31270;48.328;10.096;2022-08-14T13:16:12;35.90;53.60
45549;DHT22;31270;48.328;10.096;2022-08-14T13:18:41;35.80;50.90
45549;DHT22;31270;48.328;10.096;2022-08-14T13:21:10;35.80;52.00
45549;DHT22;31270;48.328;10.096;2022-08-14T13:23:40;35.80;50.10
45549;DHT22;31270;48.328;10.096;2022-08-14T13:26:07;35.30;49.50
45549;DHT22;31270;48.328;10.096;2022-08-14T13:28:32;35.20;53.90
45549;DHT22;31270;48.328;10.096;2022-08-14T13:31:02;35.30;52.20
45549;DHT22;31270;48.328;10.096;2022-08-14T13:33:30;35.50;50.70
45549;DHT22;31270;48.328;10.096;2022-08-14T13:35:57;35.40;49.00
45549;DHT22;31270;48.328;10.096;2022-08-14T13:38:23;35.60;53.00
45549;DHT22;31270;48.328;10.096;2022-08-14T13:40:54;35.70;52.50
45549;DHT22;31270;48.328;10.096;2022-08-14T13:43:22;35.80;52.40
45549;DHT22;31270;48.328;10.096;2022-08-14T13:45:51;36.10;52.70
45549;DHT22;31270;48.328;10.096;2022-08-14T13:48:21;36.20;51.60
45549;DHT22;31270;48.328;10.096;2022-08-14T13:50:52;36.10;50.80
45549;DHT22;31270;48.328;10.096;2022-08-14T13:53:22;36.20;49.70
45549;DHT22;31270;48.328;10.096;2022-08-14T13:55:50;36.00;49.20
45549;DHT22;31270;48.328;10.096;2022-08-14T13:58:16;35.90;52.00
45549;DHT22;31270;48.328;10.096;2022-08-14T14:00:45;35.80;52.80
45549;DHT22;31270;48.328;10.096;2022-08-14T14:03:11;36.00;54.00
45549;DHT22;31270;48.328;10.096;2022-08-14T14:05:38;36.00;52.70
45549;DHT22;31270;48.328;10.096;2022-08-14T14:08:04;36.10;52.30
45549;DHT22;31270;48.328;10.096;2022-08-14T14:10:35;36.00;52.20
45549;DHT22;31270;48.328;10.096;2022-08-14T14:13:01;36.10;52.90
45549;DHT22;31270;48.328;10.096;2022-08-14T14:15:29;36.20;52.90
45549;DHT22;31270;48.328;10.096;2022-08-14T14:17:55;36.10;52.30
45549;DHT22;31270;48.328;10.096;2022-08-14T14:20:22;36.20;53.30
45549;DHT22;31270;48.328;10.096;2022-08-14T14:22:50;36.00;51.40
45549;DHT22;31270;48.328;10.096;2022-08-14T14:25:17;35.80;49.50
45549;DHT22;31270;48.328;10.096;2022-08-14T14:27:45;35.90;51.70
45549;DHT22;31270;48.328;10.096;2022-08-14T14:30:12;36.00;53.10
45549;DHT22;31270;48.328;10.096;2022-08-14T14:32:41;35.80;50.10
45549;DHT22;31270;48.328;10.096;2022-08-14T14:35:13;35.70;51.60
45549;DHT22;31270;48.328;10.096;2022-08-14T14:37:41;35.70;53.90
45549;DHT22;31270;48.328;10.096;2022-08-14T14:40:09;35.80;53.30
45549;DHT22;31270;48.328;10.096;2022-08-14T14:42:44;35.90;53.00
45549;DHT22;31270;48.328;10.096;2022-08-14T14:45:11;35.90;53.20
45549;DHT22;31270;48.328;10.096;2022-08-14T14:47:45;35.70;54.50
45549;DHT22;31270;48.328;10.096;2022-08-14T14:50:12;35.50;53.70
45549;DHT22;31270;48.328;10.096;2022-08-14T14:52:39;35.30;53.70
45549;DHT22;31270;48.328;10.096;2022-08-14T14:55:06;35.30;52.90
45549;DHT22;31270;48.328;10.096;2022-08-14T14:57:32;35.10;53.60
45549;DHT22;31270;48.328;10.096;2022-08-14T14:59:58;35.00;53.10
45549;DHT22;31270;48.328;10.096;2022-08-14T15:02:34;34.90;52.70
45549;DHT22;31270;48.328;10.096;2022-08-14T15:05:01;34.90;53.80
45549;DHT22;31270;48.328;10.096;2022-08-14T15:07:28;34.90;53.90
45549;DHT22;31270;48.328;10.096;2022-08-14T15:09:54;34.60;53.80
45549;DHT22;31270;48.328;10.096;2022-08-14T15:12:19;34.50;53.90
45549;DHT22;31270;48.328;10.096;2022-08-14T15:14:45;34.50;53.80
45549;DHT22;31270;48.328;10.096;2022-08-14T15:17:11;34.50;53.40
45549;DHT22;31270;48.328;10.096;2022-08-14T15:19:37;34.50;54.70
45549;DHT22;31270;48.328;10.096;2022-08-14T15:22:02;34.20;54.60
45549;DHT22;31270;48.328;10.096;2022-08-14T15:24:28;34.00;54.50
45549;DHT22;31270;48.328;10.096;2022-08-14T15:26:54;33.70;53.60
45549;DHT22;31270;48.328;10.096;2022-08-14T15:29:21;33.70;53.60
45549;DHT22;31270;48.328;10.096;2022-08-14T15:31:47;33.50;54.50
45549;DHT22;31270;48.328;10.096;2022-08-14T15:34:12;33.30;53.90
45549;DHT22;31270;48.328;10.096;2022-08-14T15:36:43;33.20;55.10
45549;DHT22;31270;48.328;10.096;2022-08-14T15:39:10;33.00;54.30
45549;DHT22;31270;48.328;10.096;2022-08-14T15:41:36;32.80;54.60
45549;DHT22;31270;48.328;10.096;2022-08-14T15:44:02;32.80;54.70